Time;durP1;ratioP1;P1;durP2;ratioP2;P2;SDS_P1;SDS_P2;PMS_P1;PMS_P2;Temp;Humidity;BMP_temperature;BMP_pressure;BME280_temperature;BME280_humidity;BME280_pressure;Samples;Min_cycle;Max_cycle;Signal;HPM_P1;HPM_P2
2024/01/05 00:00:47;;;;;;;12.30;6.97;;;2.50;99.90;;;;;;5072417;28;20143;-87
2024/01/05 00:03:12;;;;;;;10.25;6.22;;;2.50;99.90;;;;;;5054982;28;20771;-79
2024/01/05 00:05:39;;;;;;;13.10;7.22;;;2.50;99.90;;;;;;5055424;28;20045;-87
2024/01/05 00:08:05;;;;;;;12.77;6.93;;;2.50;99.90;;;;;;5054896;28;20037;-87
2024/01/05 00:10:31;;;;;;;10.07;6.53;;;2.50;99.90;;;;;;5071602;28;20048;-86
2024/01/05 00:12:57;;;;;;;8.32;4.90;;;2.50;99.90;;;;;;5072226;28;20040;-87
2024/01/05 00:15:22;;;;;;;13.60;7.50;;;3.10;99.90;;;;;;5054800;28;20045;-88
2024/01/05 00:17:48;;;;;;;11.65;7.43;;;2.50;99.90;;;;;;5072297;28;20093;-87
2024/01/05 00:20:14;;;;;;;13.93;7.97;;;2.50;99.90;;;;;;5055239;28;20506;-80
2024/01/05 00:22:40;;;;;;;10.13;6.05;;;2.50;99.90;;;;;;5072101;28;20059;-88
2024/01/05 00:25:06;;;;;;;15.30;8.00;;;2.50;99.90;;;;;;5071787;28;20075;-87
2024/01/05 00:27:32;;;;;;;13.23;7.00;;;2.50;99.90;;;;;;5071081;28;20485;-84
2024/01/05 00:29:58;;;;;;;8.95;6.82;;;2.50;99.90;;;;;;5071355;28;20056;-85
2024/01/05 00:32:23;;;;;;;14.85;6.95;;;2.40;99.90;;;;;;5071500;28;20040;-84
2024/01/05 00:34:49;;;;;;;12.75;7.93;;;2.30;99.90;;;;;;5055370;28;20048;-85
2024/01/05 00:37:15;;;;;;;9.38;6.50;;;2.80;99.90;;;;;;5055192;28;20127;-78
2024/01/05 00:39:41;;;;;;;14.90;8.18;;;2.40;99.90;;;;;;5054643;28;20124;-85
2024/01/05 00:42:07;;;;;;;11.88;8.18;;;2.50;99.90;;;;;;5055016;28;20149;-85
2024/01/05 00:44:33;;;;;;;14.25;7.70;;;2.30;99.90;;;;;;5070979;28;20048;-81
2024/01/05 00:46:58;;;;;;;16.48;9.15;;;2.30;99.90;;;;;;5070828;28;20051;-83
2024/01/05 00:49:24;;;;;;;13.70;9.13;;;2.30;99.90;;;;;;5054216;28;20052;-82
2024/01/05 00:51:50;;;;;;;14.00;8.65;;;2.30;99.90;;;;;;5071208;28;20078;-84
2024/01/05 00:54:16;;;;;;;10.95;7.18;;;2.30;99.90;;;;;;5070837;28;20064;-84
2024/01/05 00:56:41;;;;;;;11.80;7.78;;;2.30;99.90;;;;;;5053593;28;20088;-81
2024/01/05 00:59:07;;;;;;;16.70;9.35;;;2.30;99.90;;;;;;5070909;28;20055;-81
2024/01/05 01:01:33;;;;;;;13.25;8.27;;;2.30;99.90;;;;;;5070723;28;20094;-81
2024/01/05 01:03:58;;;;;;;12.73;8.68;;;2.20;99.90;;;;;;5054627;28;20105;-83
2024/01/05 01:06:24;;;;;;;12.80;8.77;;;2.20;99.90;;;;;;5070286;28;20044;-80
2024/01/05 01:08:50;;;;;;;14.02;10.00;;;2.20;99.90;;;;;;5072264;28;20126;-81
2024/01/05 01:11:17;;;;;;;15.35;9.90;;;2.20;99.90;;;;;;5054225;28;20102;-82
2024/01/05 01:13:43;;;;;;;15.02;10.52;;;2.20;99.90;;;;;;5054007;28;20135;-82
2024/01/05 01:16:10;;;;;;;17.10;10.38;;;2.10;99.90;;;;;;5057781;28;20048;-82
2024/01/05 01:18:36;;;;;;;14.70;9.60;;;2.10;99.90;;;;;;5074041;28;20044;-82
2024/01/05 01:21:01;;;;;;;17.20;10.68;;;2.10;99.90;;;;;;5057755;28;20125;-83
2024/01/05 01:23:28;;;;;;;15.07;8.13;;;2.20;99.90;;;;;;5041178;28;20495;-82
2024/01/05 01:25:54;;;;;;;16.40;9.00;;;2.20;99.90;;;;;;5074782;28;20095;-83
2024/01/05 01:28:19;;;;;;;14.10;8.93;;;2.20;99.90;;;;;;5057772;28;20052;-83
2024/01/05 01:30:45;;;;;;;14.13;8.48;;;2.20;99.90;;;;;;5074163;28;20131;-83
2024/01/05 01:33:10;;;;;;;13.68;9.57;;;2.20;99.90;;;;;;5074720;28;20398;-83
2024/01/05 01:35:36;;;;;;;12.65;8.13;;;2.10;99.90;;;;;;5073932;28;20107;-83
2024/01/05 01:38:02;;;;;;;13.63;9.15;;;2.50;99.90;;;;;;5074475;28;20055;-84
2024/01/05 01:40:28;;;;;;;15.15;9.40;;;2.20;99.90;;;;;;5057314;28;20056;-83
2024/01/05 01:42:53;;;;;;;13.57;10.00;;;2.10;99.90;;;;;;5074391;28;20190;-84
2024/01/05 01:45:19;;;;;;;12.70;8.82;;;2.60;99.90;;;;;;5074225;28;20479;-84
2024/01/05 01:47:46;;;;;;;14.70;9.25;;;2.20;99.90;;;;;;5073567;28;20040;-82
2024/01/05 01:50:12;;;;;;;13.23;9.07;;;2.10;99.90;;;;;;5073979;28;20387;-83
2024/01/05 01:52:39;;;;;;;13.52;9.98;;;2.20;99.90;;;;;;5056716;28;20053;-83
2024/01/05 01:55:06;;;;;;;12.23;8.80;;;2.20;99.90;;;;;;5073610;28;20061;-84
2024/01/05 01:57:33;;;;;;;14.82;8.25;;;2.20;99.90;;;;;;5073484;28;20063;-83
2024/01/05 01:59:58;;;;;;;18.60;9.23;;;3.00;99.90;;;;;;5073883;28;20051;-84
2024/01/05 02:02:25;;;;;;;14.98;9.80;;;2.40;99.90;;;;;;5057220;28;20397;-84
2024/01/05 02:04:51;;;;;;;15.00;8.73;;;2.20;99.90;;;;;;5073370;28;20052;-84
2024/01/05 02:07:17;;;;;;;13.18;9.15;;;2.30;99.90;;;;;;5057120;28;20131;-83
2024/01/05 02:09:43;;;;;;;15.57;10.02;;;2.20;99.90;;;;;;5056538;28;20123;-84
2024/01/05 02:12:09;;;;;;;15.20;9.55;;;2.20;99.90;;;;;;5057208;28;20137;-84
2024/01/05 02:14:34;;;;;;;15.10;9.43;;;2.20;99.90;;;;;;5040349;28;20426;-82
2024/01/05 02:17:00;;;;;;;14.93;8.20;;;2.20;99.90;;;;;;5074538;28;20052;-83
2024/01/05 02:19:26;;;;;;;17.48;9.45;;;2.20;99.90;;;;;;5057229;28;20059;-82
2024/01/05 02:21:56;;;;;;;17.80;10.80;;;2.40;99.90;;;;;;5056806;28;20044;-83
2024/01/05 02:24:22;;;;;;;15.18;9.27;;;2.20;99.90;;;;;;5074224;28;20052;-83
2024/01/05 02:26:47;;;;;;;17.80;9.65;;;2.20;99.90;;;;;;5056048;28;20094;-83
2024/01/05 02:29:21;;;;;;;18.23;11.15;;;2.20;99.90;;;;;;5073465;28;20068;-82
2024/01/05 02:31:47;;;;;;;20.05;10.27;;;2.20;99.90;;;;;;5072931;28;20143;-81
2024/01/05 02:34:13;;;;;;;15.90;9.65;;;2.20;99.90;;;;;;5056272;28;20057;-81
2024/01/05 02:36:39;;;;;;;17.02;11.00;;;3.10;99.90;;;;;;5056180;28;20088;-81
2024/01/05 02:39:04;;;;;;;19.58;11.60;;;2.20;99.90;;;;;;5056359;28;20049;-81
2024/01/05 02:41:33;;;;;;;18.95;10.48;;;2.10;99.90;;;;;;5039518;28;20492;-80
2024/01/05 02:43:58;;;;;;;17.73;11.15;;;2.20;99.90;;;;;;5072409;28;20044;-81
2024/01/05 02:46:24;;;;;;;17.98;10.60;;;2.10;99.90;;;;;;5074003;28;20044;-80
2024/01/05 02:48:50;;;;;;;19.65;10.00;;;2.10;99.90;;;;;;5039023;28;20083;-78
2024/01/05 02:51:15;;;;;;;16.02;9.18;;;2.30;99.90;;;;;;5073254;28;20404;-79
2024/01/05 02:53:41;;;;;;;16.48;9.35;;;2.10;99.90;;;;;;5055031;28;20052;-79
2024/01/05 02:56:07;;;;;;;21.60;11.02;;;2.40;99.90;;;;;;5055751;28;20491;-80
2024/01/05 02:58:32;;;;;;;19.02;10.95;;;2.10;99.90;;;;;;5039434;28;20044;-80
2024/01/05 03:00:58;;;;;;;20.92;11.13;;;2.10;99.90;;;;;;5072235;28;20072;-80
2024/01/05 03:03:24;;;;;;;18.85;11.45;;;2.10;99.90;;;;;;5055763;28;20071;-82
2024/01/05 03:05:49;;;;;;;20.92;11.63;;;2.10;99.90;;;;;;5072338;28;20441;-81
2024/01/05 03:08:15;;;;;;;19.20;10.70;;;2.00;99.90;;;;;;5038699;28;20037;-83
2024/01/05 03:10:41;;;;;;;19.60;10.80;;;2.00;99.90;;;;;;5055593;28;20044;-82
2024/01/05 03:13:06;;;;;;;19.80;10.13;;;2.00;99.90;;;;;;5071841;28;20110;-83
2024/01/05 03:15:32;;;;;;;19.77;12.05;;;2.00;99.90;;;;;;5072070;28;20098;-84
2024/01/05 03:17:58;;;;;;;19.77;11.30;;;2.00;99.90;;;;;;5071963;28;20316;-84
2024/01/05 03:20:24;;;;;;;21.33;12.90;;;2.00;99.90;;;;;;5055943;28;20056;-84
2024/01/05 03:22:50;;;;;;;26.52;13.63;;;2.00;99.90;;;;;;5071599;28;20074;-80
2024/01/05 03:25:15;;;;;;;19.80;11.35;;;2.00;99.90;;;;;;5072689;28;20047;-85
2024/01/05 03:27:41;;;;;;;19.63;12.88;;;2.20;99.90;;;;;;5072054;28;20047;-80
2024/01/05 03:30:07;;;;;;;21.20;12.35;;;2.00;99.90;;;;;;5055667;28;20051;-80
2024/01/05 03:32:33;;;;;;;19.95;11.07;;;2.00;99.90;;;;;;5056015;28;20491;-86
2024/01/05 03:34:58;;;;;;;23.25;12.35;;;2.00;99.90;;;;;;5055803;28;20094;-85
2024/01/05 03:37:24;;;;;;;20.30;12.10;;;2.20;99.90;;;;;;5055801;28;20084;-85
2024/01/05 03:39:50;;;;;;;17.65;11.20;;;2.20;99.90;;;;;;5055851;28;20445;-85
2024/01/05 03:42:16;;;;;;;19.65;11.85;;;1.90;99.90;;;;;;5073225;28;20053;-85
2024/01/05 03:44:42;;;;;;;19.80;12.43;;;2.00;99.90;;;;;;5056554;28;20098;-78
2024/01/05 03:47:07;;;;;;;22.73;12.13;;;2.00;99.90;;;;;;5039032;28;20079;-83
2024/01/05 03:49:33;;;;;;;20.10;11.43;;;2.00;99.90;;;;;;5073418;28;20052;-83
2024/01/05 03:51:59;;;;;;;16.65;10.43;;;2.00;99.90;;;;;;5071269;28;20044;-80
2024/01/05 03:54:25;;;;;;;21.25;11.35;;;1.90;99.90;;;;;;5054166;28;20139;-80
2024/01/05 03:56:51;;;;;;;19.77;11.82;;;2.00;99.90;;;;;;5071302;28;20095;-81
2024/01/05 03:59:16;;;;;;;22.70;12.68;;;2.20;99.90;;;;;;5072268;28;20040;-81
2024/01/05 04:01:47;;;;;;;20.83;11.02;;;1.90;99.90;;;;;;5070621;28;20059;-81
2024/01/05 04:04:13;;;;;;;21.20;12.10;;;1.90;99.90;;;;;;5071498;28;20499;-81
2024/01/05 04:06:39;;;;;;;19.73;11.57;;;1.90;99.90;;;;;;5071212;28;20502;-80
2024/01/05 04:09:09;;;;;;;23.33;12.57;;;2.00;99.90;;;;;;5087997;28;20040;-79
2024/01/05 04:11:36;;;;;;;20.58;11.43;;;1.90;99.90;;;;;;5071459;28;20055;-80
2024/01/05 04:14:02;;;;;;;21.13;11.68;;;1.90;99.90;;;;;;5071014;28;20050;-82
2024/01/05 04:16:28;;;;;;;18.95;11.23;;;2.00;99.90;;;;;;5071501;28;20056;-82
2024/01/05 04:18:54;;;;;;;19.83;11.00;;;1.90;99.90;;;;;;5054460;28;20047;-79
2024/01/05 04:21:19;;;;;;;21.92;10.95;;;2.10;99.90;;;;;;5071265;28;20052;-79
2024/01/05 04:23:45;;;;;;;24.30;12.40;;;2.30;99.90;;;;;;5054605;28;20491;-80
2024/01/05 04:26:11;;;;;;;20.27;12.50;;;2.00;99.90;;;;;;5053832;28;20402;-80
2024/01/05 04:28:36;;;;;;;19.67;12.05;;;1.90;99.90;;;;;;5071464;28;20044;-83
2024/01/05 04:31:02;;;;;;;16.08;9.60;;;1.90;99.90;;;;;;5021257;28;20051;-81
2024/01/05 04:33:29;;;;;;;20.30;12.30;;;1.90;99.90;;;;;;5071329;28;20050;-82
2024/01/05 04:35:54;;;;;;;19.52;11.27;;;2.00;99.90;;;;;;5071083;28;20052;-81
2024/01/05 04:38:20;;;;;;;17.77;11.30;;;2.00;99.90;;;;;;5054236;28;20060;-81
2024/01/05 04:40:46;;;;;;;20.02;12.38;;;1.90;99.90;;;;;;5071111;28;20055;-82
2024/01/05 04:43:11;;;;;;;19.02;10.73;;;2.00;99.90;;;;;;5070772;28;20045;-83
2024/01/05 04:45:37;;;;;;;17.85;11.35;;;1.90;99.90;;;;;;5054365;28;20049;-82
2024/01/05 04:48:03;;;;;;;19.42;10.48;;;1.90;99.90;;;;;;5053456;28;20399;-79
2024/01/05 04:50:29;;;;;;;16.95;9.75;;;2.00;99.90;;;;;;5074689;28;20132;-81
2024/01/05 04:52:54;;;;;;;14.30;7.15;;;2.30;99.90;;;;;;5074410;28;20135;-80
2024/01/05 04:55:21;;;;;;;27.20;12.98;;;2.00;99.90;;;;;;5074131;28;20048;-80
2024/01/05 04:57:47;;;;;;;20.95;11.63;;;2.00;99.90;;;;;;5074616;28;20517;-80
2024/01/05 05:00:13;;;;;;;21.75;12.48;;;1.90;99.90;;;;;;5074118;28;20102;-82
2024/01/05 05:02:39;;;;;;;19.40;11.73;;;1.90;99.90;;;;;;5074874;28;20051;-83
2024/01/05 05:05:05;;;;;;;15.73;9.45;;;1.90;99.90;;;;;;5057792;28;20048;-82
2024/01/05 05:07:31;;;;;;;14.13;9.30;;;1.90;99.90;;;;;;5075886;28;20135;-83
2024/01/05 05:09:56;;;;;;;14.93;9.00;;;2.00;99.90;;;;;;5074539;28;20048;-82
2024/01/05 05:12:22;;;;;;;21.73;11.98;;;1.90;99.90;;;;;;5058143;28;20127;-84
2024/01/05 05:14:48;;;;;;;19.42;11.27;;;1.90;99.90;;;;;;5075107;28;20483;-84
2024/01/05 05:17:13;;;;;;;16.38;9.45;;;1.90;99.90;;;;;;5058273;28;20483;-85
2024/01/05 05:19:39;;;;;;;17.33;10.75;;;1.90;99.90;;;;;;5058944;28;20078;-85
2024/01/05 05:22:05;;;;;;;22.13;12.48;;;1.90;99.90;;;;;;5058263;28;20127;-85
2024/01/05 05:24:31;;;;;;;23.65;11.23;;;2.10;99.90;;;;;;5075168;28;20403;-86
2024/01/05 05:26:56;;;;;;;18.70;10.27;;;1.90;99.90;;;;;;5042070;28;20391;-80
2024/01/05 05:29:23;;;;;;;16.02;9.98;;;1.90;99.90;;;;;;5074792;28;20052;-86
2024/01/05 05:31:49;;;;;;;16.85;10.18;;;2.00;99.90;;;;;;5058437;28;20076;-85
2024/01/05 05:34:14;;;;;;;20.88;11.40;;;1.90;99.90;;;;;;5074317;28;20071;-86
2024/01/05 05:36:40;;;;;;;20.60;11.93;;;2.10;99.90;;;;;;5058055;28;20059;-86
2024/01/05 05:39:06;;;;;;;18.60;10.82;;;2.10;99.90;;;;;;5074064;28;20359;-86
2024/01/05 05:41:31;;;;;;;17.60;10.15;;;2.00;99.90;;;;;;5074519;28;20374;-84
2024/01/05 05:43:57;;;;;;;18.80;11.15;;;2.20;99.90;;;;;;5041221;28;20086;-84
2024/01/05 05:46:23;;;;;;;25.00;11.95;;;2.00;99.90;;;;;;5057466;28;20048;-84
2024/01/05 05:48:49;;;;;;;20.30;10.57;;;2.00;99.90;;;;;;5057341;28;20396;-84
2024/01/05 05:51:15;;;;;;;16.88;11.07;;;2.00;99.90;;;;;;5073557;28;20048;-84
2024/01/05 05:53:40;;;;;;;18.40;9.82;;;2.10;99.90;;;;;;5073828;28;20056;-84
2024/01/05 05:56:06;;;;;;;19.38;10.43;;;2.00;99.90;;;;;;5073796;28;20392;-84
2024/01/05 05:58:32;;;;;;;17.38;11.05;;;2.10;99.90;;;;;;5057528;28;20056;-84
2024/01/05 06:00:58;;;;;;;17.73;9.88;;;3.10;99.90;;;;;;5072907;28;20057;-84
2024/01/05 06:03:24;;;;;;;20.73;12.15;;;2.80;99.90;;;;;;5073328;28;20083;-84
2024/01/05 06:05:50;;;;;;;15.93;9.32;;;2.00;99.90;;;;;;5074273;28;20584;-87
2024/01/05 06:08:16;;;;;;;18.02;10.75;;;2.00;99.90;;;;;;5073603;28;20041;-84
2024/01/05 06:10:42;;;;;;;20.25;12.50;;;2.20;99.90;;;;;;5073702;28;20059;-85
2024/01/05 06:13:08;;;;;;;16.05;10.50;;;2.60;99.90;;;;;;5056945;28;20134;-82
2024/01/05 06:15:34;;;;;;;19.33;11.18;;;2.20;99.90;;;;;;5074314;28;20080;-86
2024/01/05 06:17:59;;;;;;;18.38;10.75;;;2.10;99.90;;;;;;5040168;28;20044;-85
2024/01/05 06:20:25;;;;;;;21.10;11.35;;;2.20;99.90;;;;;;5040194;28;20044;-85
2024/01/05 06:22:51;;;;;;;17.80;10.52;;;2.20;99.90;;;;;;5040200;28;20072;-86
2024/01/05 06:25:17;;;;;;;17.42;10.20;;;2.20;99.90;;;;;;5073171;28;20471;-85
2024/01/05 06:27:42;;;;;;;19.30;11.15;;;2.20;99.90;;;;;;5056582;28;20082;-85
2024/01/05 06:30:11;;;;;;;19.90;11.45;;;2.20;99.90;;;;;;5056007;28;20131;-79
2024/01/05 06:32:37;;;;;;;16.40;10.57;;;2.20;99.90;;;;;;5057239;28;20056;-85
2024/01/05 06:35:05;;;;;;;15.02;8.77;;;2.20;99.90;;;;;;5056394;28;20044;-85
2024/01/05 06:37:30;;;;;;;20.67;11.90;;;2.20;99.90;;;;;;5056315;28;20412;-84
2024/01/05 06:39:56;;;;;;;18.77;11.32;;;2.30;99.90;;;;;;5072648;28;20044;-84
2024/01/05 06:42:22;;;;;;;17.83;11.82;;;2.30;99.90;;;;;;5055844;28;20052;-84
2024/01/05 06:44:50;;;;;;;18.30;11.38;;;2.30;99.90;;;;;;5055930;28;20048;-83
2024/01/05 06:47:16;;;;;;;17.25;11.88;;;2.30;99.90;;;;;;5055796;28;20091;-82
2024/01/05 06:49:42;;;;;;;23.00;12.38;;;2.40;99.90;;;;;;5039586;28;20477;-83
2024/01/05 06:52:08;;;;;;;16.15;10.55;;;2.70;99.90;;;;;;5072797;28;20060;-85
2024/01/05 06:54:34;;;;;;;16.13;10.40;;;2.40;99.90;;;;;;5071645;28;20071;-84
2024/01/05 06:57:00;;;;;;;17.73;10.98;;;2.30;99.90;;;;;;5072790;28;20068;-82
2024/01/05 06:59:30;;;;;;;15.88;9.50;;;2.30;99.90;;;;;;5072256;28;20135;-85
2024/01/05 07:01:56;;;;;;;16.13;11.27;;;2.40;99.90;;;;;;5073026;28;20048;-81
2024/01/05 07:04:22;;;;;;;16.63;10.07;;;2.50;99.90;;;;;;5072026;28;20048;-83
2024/01/05 07:06:48;;;;;;;17.70;11.07;;;2.40;99.90;;;;;;5055963;28;20148;-83
2024/01/05 07:09:16;;;;;;;18.20;10.75;;;2.60;99.90;;;;;;5072392;28;20387;-77
2024/01/05 07:11:41;;;;;;;18.08;10.13;;;2.40;99.90;;;;;;5055811;28;20433;-83
2024/01/05 07:14:07;;;;;;;17.38;10.02;;;2.40;99.90;;;;;;5055376;28;20048;-84
2024/01/05 07:16:33;;;;;;;14.25;8.55;;;2.50;99.90;;;;;;5071902;28;20690;-86
2024/01/05 07:18:59;;;;;;;17.08;10.73;;;2.40;99.90;;;;;;5039353;28;20048;-81
2024/01/05 07:21:26;;;;;;;14.30;9.30;;;2.70;99.90;;;;;;5071555;28;20094;-81
2024/01/05 07:23:51;;;;;;;14.10;9.30;;;2.50;99.90;;;;;;5055859;28;20106;-82
2024/01/05 07:26:23;;;;;;;14.40;8.65;;;2.50;99.90;;;;;;5071701;28;20048;-84
2024/01/05 07:28:49;;;;;;;16.23;9.13;;;2.60;99.90;;;;;;5072696;28;20075;-84
2024/01/05 07:31:21;;;;;;;16.35;11.10;;;2.60;99.90;;;;;;5055887;28;20388;-79
2024/01/05 07:33:47;;;;;;;16.48;9.32;;;2.50;99.90;;;;;;5072892;28;20513;-85
2024/01/05 07:36:13;;;;;;;14.45;8.95;;;2.80;99.90;;;;;;5055514;28;20060;-82
2024/01/05 07:38:38;;;;;;;16.10;9.10;;;2.60;99.90;;;;;;5071624;28;20396;-85
2024/01/05 07:41:04;;;;;;;18.73;10.75;;;2.60;99.90;;;;;;5055212;28;20048;-84
2024/01/05 07:43:30;;;;;;;15.32;10.82;;;2.60;99.90;;;;;;5055124;28;20574;-84
2024/01/05 07:45:56;;;;;;;18.63;10.85;;;2.60;99.90;;;;;;5071708;28;20047;-81
2024/01/05 07:48:22;;;;;;;23.30;10.68;;;2.60;99.90;;;;;;5071990;28;20133;-81
2024/01/05 07:50:48;;;;;;;16.95;10.27;;;2.60;99.90;;;;;;5038829;28;20053;-85
2024/01/05 07:53:14;;;;;;;15.32;9.38;;;2.70;99.90;;;;;;5055531;28;20048;-86
2024/01/05 07:55:39;;;;;;;19.85;11.80;;;2.60;99.90;;;;;;5055026;28;20063;-86
2024/01/05 07:58:05;;;;;;;18.25;12.23;;;2.80;99.90;;;;;;5072233;28;20102;-84
2024/01/05 08:00:31;;;;;;;16.27;9.30;;;2.60;99.90;;;;;;5071613;28;20040;-86
2024/01/05 08:02:58;;;;;;;14.05;8.60;;;2.70;99.90;;;;;;5055300;28;20048;-85
2024/01/05 08:05:24;;;;;;;15.20;9.77;;;2.60;99.90;;;;;;5070855;28;20501;-84
2024/01/05 08:07:49;;;;;;;18.58;10.77;;;2.70;99.90;;;;;;5054804;28;20044;-84
2024/01/05 08:10:15;;;;;;;15.48;9.43;;;2.70;99.90;;;;;;5054983;28;20052;-83
2024/01/05 08:12:41;;;;;;;19.30;12.23;;;2.80;99.90;;;;;;5071451;28;20044;-84
2024/01/05 08:15:07;;;;;;;21.45;12.82;;;2.80;99.90;;;;;;5071324;28;20044;-81
2024/01/05 08:17:32;;;;;;;20.80;12.32;;;2.80;99.90;;;;;;5054159;28;20049;-83
2024/01/05 08:19:58;;;;;;;19.48;12.32;;;3.00;99.90;;;;;;5054601;28;20062;-79
2024/01/05 08:22:25;;;;;;;20.05;12.57;;;2.80;99.90;;;;;;5070427;28;20101;-76
2024/01/05 08:24:51;;;;;;;22.88;14.43;;;2.70;99.90;;;;;;5074381;28;20405;-78
2024/01/05 08:27:17;;;;;;;24.45;13.73;;;2.80;99.90;;;;;;5075132;28;20048;-77
2024/01/05 08:29:42;;;;;;;22.77;13.63;;;2.80;99.90;;;;;;5074413;28;20185;-78
2024/01/05 08:32:08;;;;;;;24.45;15.30;;;3.20;99.90;;;;;;5075154;28;20063;-77
2024/01/05 08:34:34;;;;;;;21.42;11.90;;;2.80;99.90;;;;;;5057889;28;20045;-77
2024/01/05 08:37:00;;;;;;;25.65;13.98;;;2.80;99.90;;;;;;5074801;28;20055;-77
2024/01/05 08:39:25;;;;;;;19.73;11.60;;;2.90;99.90;;;;;;5074704;28;20048;-75
2024/01/05 08:41:51;;;;;;;22.70;13.95;;;2.80;99.90;;;;;;5075817;28;20048;-77
2024/01/05 08:44:19;;;;;;;21.10;13.48;;;2.80;99.90;;;;;;5058246;28;20102;-79
2024/01/05 08:46:45;;;;;;;21.50;12.73;;;3.30;99.90;;;;;;5074138;28;20052;-78
2024/01/05 08:49:10;;;;;;;26.63;13.63;;;2.90;99.90;;;;;;5058094;28;20048;-78
2024/01/05 08:51:43;;;;;;;22.98;13.60;;;2.80;99.90;;;;;;5056443;28;20135;-78
2024/01/05 08:54:09;;;;;;;15.38;9.95;;;2.90;99.90;;;;;;5073864;28;20056;-78
2024/01/05 08:56:36;;;;;;;22.55;15.25;;;3.00;99.90;;;;;;5057592;28;20106;-78
2024/01/05 08:59:04;;;;;;;22.40;14.10;;;2.90;99.90;;;;;;5074752;28;20049;-79
2024/01/05 09:01:32;;;;;;;21.50;13.15;;;3.00;99.90;;;;;;5057601;28;20082;-79
2024/01/05 09:03:58;;;;;;;21.33;13.85;;;3.20;99.90;;;;;;5058572;28;20052;-84
2024/01/05 09:06:24;;;;;;;24.95;13.20;;;3.90;99.90;;;;;;5074663;28;20137;-81
2024/01/05 09:08:49;;;;;;;22.30;14.00;;;3.00;99.90;;;;;;5075168;28;20391;-80
2024/01/05 09:11:16;;;;;;;23.52;13.68;;;3.00;99.90;;;;;;5057723;28;20052;-83
2024/01/05 09:13:42;;;;;;;18.90;11.45;;;3.00;99.90;;;;;;5074119;28;20079;-79
2024/01/05 09:16:07;;;;;;;19.92;11.98;;;3.10;99.90;;;;;;5074125;28;20091;-81
2024/01/05 09:18:36;;;;;;;23.98;14.25;;;3.10;99.90;;;;;;5073801;28;20040;-77
2024/01/05 09:21:02;;;;;;;26.17;14.05;;;3.10;99.90;;;;;;5057892;28;20048;-78
2024/01/05 09:23:28;;;;;;;21.50;10.80;;;3.10;99.90;;;;;;5074263;28;20048;-81
2024/01/05 09:25:54;;;;;;;16.73;10.60;;;3.10;99.90;;;;;;5074248;28;20055;-80
2024/01/05 09:28:20;;;;;;;15.70;8.98;;;3.40;99.90;;;;;;5074141;28;20045;-79
2024/01/05 09:30:45;;;;;;;18.90;10.18;;;3.20;99.90;;;;;;5073746;28;20067;-81
2024/01/05 09:33:11;;;;;;;14.88;9.55;;;3.00;99.90;;;;;;5074102;28;20087;-80
2024/01/05 09:35:37;;;;;;;17.75;11.02;;;3.10;99.90;;;;;;5072553;28;20048;-83
2024/01/05 09:38:03;;;;;;;19.35;11.68;;;3.10;99.90;;;;;;5057360;28;20059;-82
2024/01/05 09:40:28;;;;;;;16.67;9.27;;;3.10;99.90;;;;;;5057707;28;20182;-83
2024/01/05 09:42:57;;;;;;;20.88;12.13;;;3.20;99.90;;;;;;5073314;28;20037;-81
2024/01/05 09:45:24;;;;;;;18.33;10.85;;;3.10;99.90;;;;;;5057278;28;20048;-80
2024/01/05 09:47:51;;;;;;;20.08;11.80;;;3.10;99.90;;;;;;5056550;28;20045;-80
2024/01/05 09:50:17;;;;;;;18.65;11.52;;;3.20;99.90;;;;;;5074913;28;20044;-80
2024/01/05 09:52:43;;;;;;;17.77;9.93;;;3.20;99.90;;;;;;5073589;28;20063;-80
2024/01/05 09:55:10;;;;;;;16.38;9.60;;;3.40;99.90;;;;;;5072996;28;20075;-81
2024/01/05 09:57:37;;;;;;;20.00;10.75;;;3.20;99.90;;;;;;5073762;28;20167;-78
2024/01/05 10:00:04;;;;;;;17.73;11.25;;;3.20;99.90;;;;;;5073528;28;20088;-82
2024/01/05 10:02:43;;;;;;;17.90;11.80;;;3.20;99.90;;;;;;5073210;28;20583;-81
2024/01/05 10:05:10;;;;;;;18.83;10.75;;;3.20;99.90;;;;;;5074978;28;20446;-83
2024/01/05 10:07:42;;;;;;;19.35;11.57;;;3.30;99.90;;;;;;5075031;28;20050;-84
2024/01/05 10:10:10;;;;;;;21.30;11.02;;;3.20;99.90;;;;;;5074237;28;20084;-83
2024/01/05 10:12:37;;;;;;;18.92;10.95;;;3.30;99.90;;;;;;5073693;28;20381;-82
2024/01/05 10:15:05;;;;;;;20.35;12.02;;;3.30;99.90;;;;;;5073429;28;20048;-83
2024/01/05 10:17:30;;;;;;;16.40;9.48;;;3.30;99.90;;;;;;5073804;28;20139;-82
2024/01/05 10:20:14;;;;;;;21.58;12.43;;;3.40;99.90;;;;;;5074168;28;20467;-83
2024/01/05 10:22:40;;;;;;;20.55;12.75;;;3.40;99.90;;;;;;5074489;28;20042;-78
2024/01/05 10:25:22;;;;;;;20.42;11.50;;;3.40;99.90;;;;;;5077467;28;20048;-83
2024/01/05 10:27:49;;;;;;;17.95;11.05;;;3.40;99.90;;;;;;5092580;28;20041;-83
2024/01/05 10:30:27;;;;;;;20.77;13.55;;;3.50;99.90;;;;;;5059365;28;20056;-83
2024/01/05 10:33:06;;;;;;;21.80;12.45;;;3.40;99.90;;;;;;5074625;28;20341;-83
2024/01/05 10:35:34;;;;;;;22.95;11.02;;;3.50;99.90;;;;;;5058010;28;20052;-84
2024/01/05 10:38:14;;;;;;;22.73;12.90;;;3.60;99.90;;;;;;5058582;28;20052;-84
2024/01/05 10:40:40;;;;;;;19.65;11.07;;;3.60;99.90;;;;;;5074948;28;20052;-84
2024/01/05 10:43:12;;;;;;;21.42;12.18;;;3.70;99.90;;;;;;5073802;28;20041;-83
2024/01/05 10:45:39;;;;;;;23.60;13.23;;;3.70;99.90;;;;;;5070383;28;20206;-82
2024/01/05 10:48:08;;;;;;;21.58;12.52;;;3.70;99.90;;;;;;5072649;28;20395;-84
2024/01/05 10:50:36;;;;;;;22.55;12.73;;;3.70;99.90;;;;;;5070827;28;20067;-83
2024/01/05 10:53:03;;;;;;;24.10;13.65;;;3.70;99.90;;;;;;5071808;28;20483;-82
2024/01/05 10:55:31;;;;;;;24.98;13.68;;;3.70;99.90;;;;;;5070198;28;20054;-74
2024/01/05 10:57:57;;;;;;;21.75;13.35;;;3.80;99.90;;;;;;5073406;28;20422;-83
2024/01/05 11:00:24;;;;;;;22.75;11.35;;;3.70;99.90;;;;;;5041087;28;20083;-82
2024/01/05 11:02:52;;;;;;;26.52;13.13;;;3.80;99.90;;;;;;5056733;28;20052;-78
2024/01/05 11:05:20;;;;;;;18.75;11.75;;;3.80;99.90;;;;;;5071908;28;20052;-73
2024/01/05 11:07:48;;;;;;;19.15;10.88;;;4.00;99.90;;;;;;5069962;28;20407;-72
2024/01/05 11:10:51;;;;;;;22.63;12.43;;;3.90;99.90;;;;;;5072016;28;20041;-75
2024/01/05 11:13:48;;;;;;;18.80;11.30;;;3.90;99.90;;;;;;5071279;28;20041;-72
2024/01/05 11:16:56;;;;;;;14.38;9.25;;;3.90;99.90;;;;;;5070996;28;20063;-74
2024/01/05 11:19:50;;;;;;;20.15;10.90;;;4.00;99.90;;;;;;5071666;28;20049;-72
2024/01/05 11:22:23;;;;;;;17.63;9.98;;;4.00;99.90;;;;;;5055410;28;20052;-73
2024/01/05 11:24:50;;;;;;;17.92;10.48;;;4.00;99.90;;;;;;5072063;28;20049;-71
2024/01/05 11:27:35;;;;;;;16.08;10.48;;;4.00;99.90;;;;;;5071075;28;20048;-75
2024/01/05 11:30:04;;;;;;;17.77;10.50;;;4.20;99.90;;;;;;5071283;28;20058;-75
2024/01/05 11:32:46;;;;;;;17.80;10.00;;;4.00;99.90;;;;;;5071432;28;20048;-74
2024/01/05 11:35:20;;;;;;;17.58;11.45;;;4.00;99.90;;;;;;5070675;28;20041;-73
2024/01/05 11:37:47;;;;;;;21.88;11.32;;;4.10;99.90;;;;;;5054335;28;20412;-72
2024/01/05 11:40:33;;;;;;;20.77;12.63;;;4.10;99.90;;;;;;5071233;28;20136;-74
2024/01/05 11:43:20;;;;;;;22.52;12.50;;;4.10;99.90;;;;;;5054054;28;20049;-73
2024/01/05 11:45:52;;;;;;;22.70;12.85;;;4.60;99.90;;;;;;5054231;28;20377;-72
2024/01/05 11:48:33;;;;;;;23.20;12.55;;;4.10;99.90;;;;;;5070668;28;20056;-73
2024/01/05 11:51:02;;;;;;;16.88;10.65;;;4.00;99.90;;;;;;5069079;28;20388;-74
2024/01/05 11:53:29;;;;;;;23.42;13.35;;;4.00;99.90;;;;;;5069965;28;20519;-74
2024/01/05 11:55:59;;;;;;;17.13;10.43;;;4.10;99.90;;;;;;5068809;28;20056;-73
2024/01/05 11:58:31;;;;;;;23.63;13.25;;;4.00;99.90;;;;;;5070562;28;20052;-73
2024/01/05 12:01:02;;;;;;;21.25;11.63;;;4.10;99.90;;;;;;5070767;28;20048;-74
2024/01/05 12:03:28;;;;;;;20.48;12.05;;;4.10;99.90;;;;;;5072223;28;20052;-73
2024/01/05 12:05:59;;;;;;;16.98;10.75;;;4.20;99.90;;;;;;5071749;28;20072;-72
2024/01/05 12:08:26;;;;;;;21.00;12.00;;;4.20;99.90;;;;;;5071347;28;20101;-75
2024/01/05 12:11:02;;;;;;;19.25;11.77;;;4.20;99.90;;;;;;5068281;28;20060;-72
2024/01/05 12:13:33;;;;;;;13.15;7.85;;;4.20;99.90;;;;;;5071172;28;20048;-72
2024/01/05 12:16:00;;;;;;;19.13;11.25;;;4.20;99.90;;;;;;5066105;28;20052;-72
2024/01/05 12:18:26;;;;;;;18.10;9.77;;;4.20;99.90;;;;;;5070570;28;20049;-74
2024/01/05 12:21:03;;;;;;;16.65;9.82;;;4.20;99.90;;;;;;5069526;28;20044;-77
2024/01/05 12:23:32;;;;;;;13.07;8.60;;;4.20;99.90;;;;;;5071363;28;20111;-75
2024/01/05 12:26:06;;;;;;;20.40;10.50;;;4.20;99.90;;;;;;5069190;28;20480;-75
2024/01/05 12:28:36;;;;;;;16.35;9.90;;;4.20;99.90;;;;;;5070254;28;20041;-76
2024/01/05 12:31:02;;;;;;;13.40;7.90;;;4.20;99.90;;;;;;5070247;28;20094;-74
2024/01/05 12:33:31;;;;;;;15.95;9.27;;;4.20;99.90;;;;;;5070282;28;20124;-75
2024/01/05 12:35:57;;;;;;;18.83;9.13;;;4.30;99.90;;;;;;5070455;28;20095;-72
2024/01/05 12:38:28;;;;;;;9.60;5.85;;;4.20;99.90;;;;;;5070334;28;20111;-75
2024/01/05 12:41:08;;;;;;;14.75;8.60;;;4.30;99.90;;;;;;5069218;28;20161;-74